sensor_id;sensor_type;location;lat;lon;timestamp;temperature;humidity
15690;DHT22;7945;48.816;11.506;2023-04-01T00:00:50;10.10;99.90
15690;DHT22;7945;48.816;11.506;2023-04-01T00:03:17;10.10;99.90
15690;DHT22;7945;48.816;11.506;2023-04-01T00:05:44;10.10;99.90
15690;DHT22;7945;48.816;11.506;2023-04-01T00:08:12;10.10;99.90
15690;DHT22;7945;48.816;11.506;2023-04-01T00:10:39;10.10;99.90
15690;DHT22;7945;48.816;11.506;2023-04-01T00:13:06;10.10;99.90
15690;DHT22;7945;48.816;11.506;2023-04-01T00:15:34;10.10;99.90
15690;DHT22;7945;48.816;11.506;2023-04-01T00:18:01;10.10;99.90
15690;DHT22;7945;48.816;11.506;2023-04-01T00:20:28;10.00;99.90
15690;DHT22;7945;48.816;11.506;2023-04-01T00:22:56;10.10;99.90
15690;DHT22;7945;48.816;11.506;2023-04-01T00:25:24;10.10;99.90
15690;DHT22;7945;48.816;11.506;2023-04-01T00:27:51;10.00;99.90
15690;DHT22;7945;48.816;11.506;2023-04-01T00:30:18;10.00;99.90
15690;DHT22;7945;48.816;11.506;2023-04-01T00:32:45;10.00;99.90
15690;DHT22;7945;48.816;11.506;2023-04-01T00:35:12;10.00;99.90
15690;DHT22;7945;48.816;11.506;2023-04-01T00:37:38;9.90;99.90
15690;DHT22;7945;48.816;11.506;2023-04-01T00:40:07;9.90;99.90
15690;DHT22;7945;48.816;11.506;2023-04-01T00:42:36;9.90;99.90
15690;DHT22;7945;48.816;11.506;2023-04-01T00:45:23;9.90;99.90
15690;DHT22;7945;48.816;11.506;2023-04-01T00:47:51;9.90;99.90
15690;DHT22;7945;48.816;11.506;2023-04-01T00:50:18;9.90;99.90
15690;DHT22;7945;48.816;11.506;2023-04-01T00:52:45;9.90;99.90
15690;DHT22;7945;48.816;11.506;2023-04-01T00:55:13;9.90;99.90
15690;DHT22;7945;48.816;11.506;2023-04-01T00:57:43;9.90;99.90
15690;DHT22;7945;48.816;11.506;2023-04-01T01:00:12;9.80;99.90
15690;DHT22;7945;48.816;11.506;2023-04-01T01:02:41;9.80;99.90
15690;DHT22;7945;48.816;11.506;2023-04-01T01:05:11;9.80;99.90
15690;DHT22;7945;48.816;11.506;2023-04-01T01:07:42;9.80;99.90
15690;DHT22;7945;48.816;11.506;2023-04-01T01:10:15;9.80;99.90
15690;DHT22;7945;48.816;11.506;2023-04-01T01:12:47;9.70;99.90
15690;DHT22;7945;48.816;11.506;2023-04-01T01:15:20;9.70;99.90
15690;DHT22;7945;48.816;11.506;2023-04-01T01:17:56;9.70;99.90
15690;DHT22;7945;48.816;11.506;2023-04-01T01:23:43;9.70;99.90
15690;DHT22;7945;48.816;11.506;2023-04-01T01:26:37;9.60;99.90
15690;DHT22;7945;48.816;11.506;2023-04-01T01:29:15;9.60;99.90
15690;DHT22;7945;48.816;11.506;2023-04-01T01:31:52;9.60;99.90
15690;DHT22;7945;48.816;11.506;2023-04-01T01:34:25;9.60;99.90
15690;DHT22;7945;48.816;11.506;2023-04-01T01:36:57;9.50;99.90
15690;DHT22;7945;48.816;11.506;2023-04-01T01:39:28;9.50;99.90
15690;DHT22;7945;48.816;11.506;2023-04-01T01:41:58;9.50;99.90
15690;DHT22;7945;48.816;11.506;2023-04-01T01:44:27;9.50;99.90
15690;DHT22;7945;48.816;11.506;2023-04-01T01:46:56;9.50;99.90
15690;DHT22;7945;48.816;11.506;2023-04-01T01:49:24;9.50;99.90
15690;DHT22;7945;48.816;11.506;2023-04-01T01:51:51;9.40;99.90
15690;DHT22;7945;48.816;11.506;2023-04-01T01:54:20;9.40;99.90
15690;DHT22;7945;48.816;11.506;2023-04-01T01:56:49;9.40;99.90
15690;DHT22;7945;48.816;11.506;2023-04-01T01:59:20;9.40;99.90
15690;DHT22;7945;48.816;11.506;2023-04-01T02:01:50;9.40;99.90
15690;DHT22;7945;48.816;11.506;2023-04-01T02:04:19;9.40;99.90
15690;DHT22;7945;48.816;11.506;2023-04-01T02:06:51;9.40;99.90
15690;DHT22;7945;48.816;11.506;2023-04-01T02:09:20;9.40;99.90
15690;DHT22;7945;48.816;11.506;2023-04-01T02:11:49;9.40;99.90
15690;DHT22;7945;48.816;11.506;2023-04-01T02:14:19;9.40;99.90
15690;DHT22;7945;48.816;11.506;2023-04-01T02:16:51;9.40;99.90
15690;DHT22;7945;48.816;11.506;2023-04-01T02:19:20;9.40;99.90
15690;DHT22;7945;48.816;11.506;2023-04-01T02:21:50;9.40;99.90
15690;DHT22;7945;48.816;11.506;2023-04-01T02:24:21;9.50;99.90
15690;DHT22;7945;48.816;11.506;2023-04-01T02:26:50;9.50;99.90
15690;DHT22;7945;48.816;11.506;2023-04-01T02:29:19;9.50;99.90
15690;DHT22;7945;48.816;11.506;2023-04-01T02:31:47;9.50;99.90
15690;DHT22;7945;48.816;11.506;2023-04-01T02:34:15;9.50;99.90
15690;DHT22;7945;48.816;11.506;2023-04-01T02:36:41;9.50;99.90
15690;DHT22;7945;48.816;11.506;2023-04-01T02:39:09;9.50;99.90
15690;DHT22;7945;48.816;11.506;2023-04-01T02:41:40;9.40;99.90
15690;DHT22;7945;48.816;11.506;2023-04-01T02:44:08;9.50;99.90
15690;DHT22;7945;48.816;11.506;2023-04-01T02:46:35;9.40;99.90
15690;DHT22;7945;48.816;11.506;2023-04-01T02:49:02;9.40;99.90
15690;DHT22;7945;48.816;11.506;2023-04-01T02:51:28;9.40;99.90
15690;DHT22;7945;48.816;11.506;2023-04-01T02:53:55;9.40;99.90
15690;DHT22;7945;48.816;11.506;2023-04-01T02:56:22;9.40;99.90
15690;DHT22;7945;48.816;11.506;2023-04-01T02:58:50;9.40;99.90
15690;DHT22;7945;48.816;11.506;2023-04-01T03:01:17;9.40;99.90
15690;DHT22;7945;48.816;11.506;2023-04-01T03:03:44;9.50;99.90
15690;DHT22;7945;48.816;11.506;2023-04-01T03:06:13;9.40;99.90
15690;DHT22;7945;48.816;11.506;2023-04-01T03:08:41;9.40;99.90
15690;DHT22;7945;48.816;11.506;2023-04-01T03:11:09;9.40;99.90
15690;DHT22;7945;48.816;11.506;2023-04-01T03:13:36;9.30;99.90
15690;DHT22;7945;48.816;11.506;2023-04-01T03:16:05;9.30;99.90
15690;DHT22;7945;48.816;11.506;2023-04-01T03:18:31;9.30;99.90
15690;DHT22;7945;48.816;11.506;2023-04-01T03:21:12;9.30;99.90
15690;DHT22;7945;48.816;11.506;2023-04-01T03:23:39;9.30;99.90
15690;DHT22;7945;48.816;11.506;2023-04-01T03:26:06;9.30;99.90
15690;DHT22;7945;48.816;11.506;2023-04-01T03:28:33;9.30;99.90
15690;DHT22;7945;48.816;11.506;2023-04-01T03:30:59;9.20;99.90
15690;DHT22;7945;48.816;11.506;2023-04-01T03:33:27;9.10;99.90
15690;DHT22;7945;48.816;11.506;2023-04-01T03:35:54;9.20;99.90
15690;DHT22;7945;48.816;11.506;2023-04-01T03:38:21;9.20;99.90
15690;DHT22;7945;48.816;11.506;2023-04-01T03:40:48;9.20;99.90
15690;DHT22;7945;48.816;11.506;2023-04-01T03:43:14;9.20;99.90
15690;DHT22;7945;48.816;11.506;2023-04-01T03:45:44;9.20;99.90
15690;DHT22;7945;48.816;11.506;2023-04-01T03:48:11;9.20;99.90
15690;DHT22;7945;48.816;11.506;2023-04-01T03:50:39;9.30;99.90
15690;DHT22;7945;48.816;11.506;2023-04-01T03:53:05;9.30;99.90
15690;DHT22;7945;48.816;11.506;2023-04-01T03:55:32;9.30;99.90
15690;DHT22;7945;48.816;11.506;2023-04-01T03:57:59;9.30;99.90
15690;DHT22;7945;48.816;11.506;2023-04-01T04:00:27;9.30;99.90
15690;DHT22;7945;48.816;11.506;2023-04-01T04:02:54;9.30;99.90
15690;DHT22;7945;48.816;11.506;2023-04-01T04:05:22;9.30;99.90
15690;DHT22;7945;48.816;11.506;2023-04-01T04:07:51;9.30;99.90
15690;DHT22;7945;48.816;11.506;2023-04-01T04:10:18;9.30;99.90
15690;DHT22;7945;48.816;11.506;2023-04-01T04:12:45;9.20;99.90
15690;DHT22;7945;48.816;11.506;2023-04-01T04:15:12;9.20;99.90
15690;DHT22;7945;48.816;11.506;2023-04-01T04:17:39;9.10;99.90
15690;DHT22;7945;48.816;11.506;2023-04-01T04:20:06;9.10;99.90
15690;DHT22;7945;48.816;11.506;2023-04-01T04:22:34;9.10;99.90
15690;DHT22;7945;48.816;11.506;2023-04-01T04:25:02;9.10;99.90
15690;DHT22;7945;48.816;11.506;2023-04-01T04:27:29;9.10;99.90
15690;DHT22;7945;48.816;11.506;2023-04-01T04:29:56;9.10;99.90
15690;DHT22;7945;48.816;11.506;2023-04-01T04:32:23;9.10;99.90
15690;DHT22;7945;48.816;11.506;2023-04-01T04:34:49;9.10;99.90
15690;DHT22;7945;48.816;11.506;2023-04-01T04:37:16;9.10;99.90
15690;DHT22;7945;48.816;11.506;2023-04-01T04:39:43;9.10;99.90
15690;DHT22;7945;48.816;11.506;2023-04-01T04:42:11;9.10;99.90
15690;DHT22;7945;48.816;11.506;2023-04-01T04:44:38;9.10;99.90
15690;DHT22;7945;48.816;11.506;2023-04-01T04:47:05;9.10;99.90
15690;DHT22;7945;48.816;11.506;2023-04-01T04:49:32;9.10;99.90
15690;DHT22;7945;48.816;11.506;2023-04-01T04:51:59;9.10;99.90
15690;DHT22;7945;48.816;11.506;2023-04-01T04:54:25;9.10;99.90
15690;DHT22;7945;48.816;11.506;2023-04-01T04:56:53;9.00;99.90
15690;DHT22;7945;48.816;11.506;2023-04-01T04:59:21;9.00;99.90
15690;DHT22;7945;48.816;11.506;2023-04-01T05:01:48;9.00;99.90
15690;DHT22;7945;48.816;11.506;2023-04-01T05:04:15;9.00;99.90
15690;DHT22;7945;48.816;11.506;2023-04-01T05:06:42;9.00;99.90
15690;DHT22;7945;48.816;11.506;2023-04-01T05:09:09;9.10;99.90
15690;DHT22;7945;48.816;11.506;2023-04-01T05:11:36;9.10;99.90
15690;DHT22;7945;48.816;11.506;2023-04-01T05:14:03;9.00;99.90
15690;DHT22;7945;48.816;11.506;2023-04-01T05:16:31;9.00;99.90
15690;DHT22;7945;48.816;11.506;2023-04-01T05:18:58;9.00;99.90
15690;DHT22;7945;48.816;11.506;2023-04-01T05:21:25;9.00;99.90
15690;DHT22;7945;48.816;11.506;2023-04-01T05:23:52;9.00;99.90
15690;DHT22;7945;48.816;11.506;2023-04-01T05:26:18;9.00;99.90
15690;DHT22;7945;48.816;11.506;2023-04-01T05:28:45;9.00;99.90
15690;DHT22;7945;48.816;11.506;2023-04-01T05:31:12;9.10;99.90
15690;DHT22;7945;48.816;11.506;2023-04-01T05:33:40;9.10;99.90
15690;DHT22;7945;48.816;11.506;2023-04-01T05:36:08;9.10;99.90
15690;DHT22;7945;48.816;11.506;2023-04-01T05:38:35;9.10;99.90
15690;DHT22;7945;48.816;11.506;2023-04-01T05:41:03;9.20;99.90
15690;DHT22;7945;48.816;11.506;2023-04-01T05:43:30;9.20;99.90
15690;DHT22;7945;48.816;11.506;2023-04-01T05:45:56;9.20;99.90
15690;DHT22;7945;48.816;11.506;2023-04-01T05:48:23;9.20;99.90
15690;DHT22;7945;48.816;11.506;2023-04-01T05:50:51;9.30;99.90
15690;DHT22;7945;48.816;11.506;2023-04-01T05:53:18;9.40;99.90
15690;DHT22;7945;48.816;11.506;2023-04-01T05:55:45;9.50;99.90
15690;DHT22;7945;48.816;11.506;2023-04-01T05:58:12;9.50;99.90
15690;DHT22;7945;48.816;11.506;2023-04-01T06:00:39;9.50;99.90
15690;DHT22;7945;48.816;11.506;2023-04-01T06:03:05;9.50;99.90
15690;DHT22;7945;48.816;11.506;2023-04-01T06:05:38;9.50;99.90
15690;DHT22;7945;48.816;11.506;2023-04-01T06:08:11;9.50;99.90
15690;DHT22;7945;48.816;11.506;2023-04-01T06:10:48;9.50;99.90
15690;DHT22;7945;48.816;11.506;2023-04-01T06:15:25;9.40;99.90
15690;DHT22;7945;48.816;11.506;2023-04-01T06:18:31;9.30;99.90
15690;DHT22;7945;48.816;11.506;2023-04-01T06:21:09;9.30;99.90
15690;DHT22;7945;48.816;11.506;2023-04-01T06:23:50;9.30;99.90
15690;DHT22;7945;48.816;11.506;2023-04-01T06:26:26;9.30;99.90
15690;DHT22;7945;48.816;11.506;2023-04-01T06:32:28;9.30;99.90
15690;DHT22;7945;48.816;11.506;2023-04-01T06:35:15;9.40;99.90
15690;DHT22;7945;48.816;11.506;2023-04-01T06:38:07;9.40;99.90
15690;DHT22;7945;48.816;11.506;2023-04-01T06:40:48;9.50;99.90
15690;DHT22;7945;48.816;11.506;2023-04-01T06:43:27;9.50;99.90
15690;DHT22;7945;48.816;11.506;2023-04-01T06:46:06;9.50;99.90
15690;DHT22;7945;48.816;11.506;2023-04-01T06:48:49;9.50;99.90
15690;DHT22;7945;48.816;11.506;2023-04-01T06:51:26;9.50;99.90
15690;DHT22;7945;48.816;11.506;2023-04-01T06:54:00;9.50;99.90
15690;DHT22;7945;48.816;11.506;2023-04-01T06:56:29;9.60;99.90
15690;DHT22;7945;48.816;11.506;2023-04-01T06:59:00;9.60;99.90
15690;DHT22;7945;48.816;11.506;2023-04-01T07:01:32;9.60;99.90
15690;DHT22;7945;48.816;11.506;2023-04-01T07:04:05;9.70;99.90
15690;DHT22;7945;48.816;11.506;2023-04-01T07:06:36;9.70;99.90
15690;DHT22;7945;48.816;11.506;2023-04-01T07:09:06;9.80;99.90
15690;DHT22;7945;48.816;11.506;2023-04-01T07:11:37;9.80;99.90
15690;DHT22;7945;48.816;11.506;2023-04-01T07:14:10;9.80;99.90
15690;DHT22;7945;48.816;11.506;2023-04-01T07:16:43;9.90;99.90
15690;DHT22;7945;48.816;11.506;2023-04-01T07:19:18;9.90;99.90
15690;DHT22;7945;48.816;11.506;2023-04-01T07:21:48;10.00;99.90
15690;DHT22;7945;48.816;11.506;2023-04-01T07:24:22;10.00;99.90
15690;DHT22;7945;48.816;11.506;2023-04-01T07:26:53;10.10;99.90
15690;DHT22;7945;48.816;11.506;2023-04-01T07:29:20;10.10;99.90
15690;DHT22;7945;48.816;11.506;2023-04-01T07:32:06;10.20;99.90
15690;DHT22;7945;48.816;11.506;2023-04-01T07:34:45;10.30;99.90
15690;DHT22;7945;48.816;11.506;2023-04-01T07:37:16;10.30;99.90
15690;DHT22;7945;48.816;11.506;2023-04-01T07:39:50;10.40;99.90
15690;DHT22;7945;48.816;11.506;2023-04-01T07:42:26;10.40;99.90
15690;DHT22;7945;48.816;11.506;2023-04-01T07:45:03;10.50;99.90
15690;DHT22;7945;48.816;11.506;2023-04-01T07:47:41;10.50;99.90
15690;DHT22;7945;48.816;11.506;2023-04-01T07:50:19;10.50;99.90
15690;DHT22;7945;48.816;11.506;2023-04-01T07:52:57;10.50;99.90
15690;DHT22;7945;48.816;11.506;2023-04-01T07:55:32;10.50;99.90
15690;DHT22;7945;48.816;11.506;2023-04-01T07:58:06;10.50;99.90
15690;DHT22;7945;48.816;11.506;2023-04-01T08:00:42;10.60;99.90
15690;DHT22;7945;48.816;11.506;2023-04-01T08:03:21;10.70;99.90
15690;DHT22;7945;48.816;11.506;2023-04-01T08:05:57;10.80;99.90
15690;DHT22;7945;48.816;11.506;2023-04-01T08:08:34;10.90;99.90
15690;DHT22;7945;48.816;11.506;2023-04-01T08:11:14;10.90;99.90
15690;DHT22;7945;48.816;11.506;2023-04-01T08:13:48;10.90;99.90
15690;DHT22;7945;48.816;11.506;2023-04-01T08:16:20;10.90;99.90
15690;DHT22;7945;48.816;11.506;2023-04-01T08:18:54;10.90;99.90
15690;DHT22;7945;48.816;11.506;2023-04-01T08:21:28;11.00;99.90
15690;DHT22;7945;48.816;11.506;2023-04-01T08:24:06;11.00;99.90
15690;DHT22;7945;48.816;11.506;2023-04-01T08:26:38;11.00;99.90
15690;DHT22;7945;48.816;11.506;2023-04-01T08:29:11;11.10;99.90
15690;DHT22;7945;48.816;11.506;2023-04-01T08:31:43;11.10;99.90
15690;DHT22;7945;48.816;11.506;2023-04-01T08:34:17;11.10;99.70
15690;DHT22;7945;48.816;11.506;2023-04-01T08:36:50;11.00;99.80
15690;DHT22;7945;48.816;11.506;2023-04-01T08:39:23;11.00;99.90
15690;DHT22;7945;48.816;11.506;2023-04-01T08:45:18;11.00;99.90
15690;DHT22;7945;48.816;11.506;2023-04-01T08:51:14;11.00;99.90
15690;DHT22;7945;48.816;11.506;2023-04-01T08:54:04;10.90;99.90
15690;DHT22;7945;48.816;11.506;2023-04-01T08:56:38;10.90;99.90
15690;DHT22;7945;48.816;11.506;2023-04-01T09:02:23;10.90;99.90
15690;DHT22;7945;48.816;11.506;2023-04-01T09:05:22;10.90;99.80
15690;DHT22;7945;48.816;11.506;2023-04-01T09:07:57;10.90;99.90
15690;DHT22;7945;48.816;11.506;2023-04-01T09:10:46;11.00;99.90
15690;DHT22;7945;48.816;11.506;2023-04-01T09:13:30;11.00;99.90
15690;DHT22;7945;48.816;11.506;2023-04-01T09:16:17;11.00;99.90
15690;DHT22;7945;48.816;11.506;2023-04-01T09:19:10;11.00;99.70
15690;DHT22;7945;48.816;11.506;2023-04-01T09:22:03;11.10;99.90
15690;DHT22;7945;48.816;11.506;2023-04-01T09:24:49;11.10;99.90
15690;DHT22;7945;48.816;11.506;2023-04-01T09:27:27;11.00;99.80
15690;DHT22;7945;48.816;11.506;2023-04-01T09:30:11;11.10;99.90
15690;DHT22;7945;48.816;11.506;2023-04-01T09:33:09;11.00;99.90
15690;DHT22;7945;48.816;11.506;2023-04-01T09:35:46;11.00;99.90
15690;DHT22;7945;48.816;11.506;2023-04-01T09:38:22;11.10;99.90
15690;DHT22;7945;48.816;11.506;2023-04-01T09:40:55;11.10;99.90
15690;DHT22;7945;48.816;11.506;2023-04-01T09:43:30;11.10;99.90
15690;DHT22;7945;48.816;11.506;2023-04-01T09:46:11;11.00;99.90
15690;DHT22;7945;48.816;11.506;2023-04-01T09:52:15;11.10;99.90
15690;DHT22;7945;48.816;11.506;2023-04-01T09:54:56;11.10;99.90
15690;DHT22;7945;48.816;11.506;2023-04-01T09:57:46;11.10;99.90
15690;DHT22;7945;48.816;11.506;2023-04-01T10:00:36;11.10;99.90
15690;DHT22;7945;48.816;11.506;2023-04-01T10:09:44;11.10;99.90
15690;DHT22;7945;48.816;11.506;2023-04-01T10:12:49;11.10;99.90
15690;DHT22;7945;48.816;11.506;2023-04-01T10:15:47;11.10;99.90
15690;DHT22;7945;48.816;11.506;2023-04-01T10:21:56;11.10;99.80
15690;DHT22;7945;48.816;11.506;2023-04-01T10:24:49;11.10;99.90
15690;DHT22;7945;48.816;11.506;2023-04-01T10:27:39;11.20;99.90
15690;DHT22;7945;48.816;11.506;2023-04-01T10:33:59;11.20;99.90
15690;DHT22;7945;48.816;11.506;2023-04-01T10:36:47;11.30;99.90
15690;DHT22;7945;48.816;11.506;2023-04-01T10:42:40;11.30;99.90
15690;DHT22;7945;48.816;11.506;2023-04-01T10:45:48;11.30;99.90
15690;DHT22;7945;48.816;11.506;2023-04-01T10:48:57;11.30;99.90
15690;DHT22;7945;48.816;11.506;2023-04-01T10:51:46;11.30;99.90
15690;DHT22;7945;48.816;11.506;2023-04-01T10:54:22;11.30;99.90
15690;DHT22;7945;48.816;11.506;2023-04-01T10:57:01;11.20;99.90
15690;DHT22;7945;48.816;11.506;2023-04-01T11:03:16;11.10;99.90
15690;DHT22;7945;48.816;11.506;2023-04-01T11:06:21;11.00;99.90
15690;DHT22;7945;48.816;11.506;2023-04-01T11:12:44;10.80;99.90
15690;DHT22;7945;48.816;11.506;2023-04-01T11:15:37;10.80;99.90
15690;DHT22;7945;48.816;11.506;2023-04-01T11:18:44;10.70;99.90
15690;DHT22;7945;48.816;11.506;2023-04-01T11:21:46;10.60;99.90
15690;DHT22;7945;48.816;11.506;2023-04-01T11:24:45;10.50;99.90
15690;DHT22;7945;48.816;11.506;2023-04-01T11:27:30;10.50;99.90
15690;DHT22;7945;48.816;11.506;2023-04-01T11:30:12;10.40;99.90
15690;DHT22;7945;48.816;11.506;2023-04-01T11:32:50;10.40;99.90
15690;DHT22;7945;48.816;11.506;2023-04-01T11:38:19;10.30;99.90
15690;DHT22;7945;48.816;11.506;2023-04-01T11:40:54;10.30;99.90
15690;DHT22;7945;48.816;11.506;2023-04-01T11:43:31;10.30;99.90
15690;DHT22;7945;48.816;11.506;2023-04-01T11:46:05;10.40;99.90
15690;DHT22;7945;48.816;11.506;2023-04-01T11:48:47;10.40;99.90
15690;DHT22;7945;48.816;11.506;2023-04-01T11:51:34;10.40;99.90
15690;DHT22;7945;48.816;11.506;2023-04-01T11:54:16;10.50;99.90
15690;DHT22;7945;48.816;11.506;2023-04-01T11:57:01;10.40;99.90
15690;DHT22;7945;48.816;11.506;2023-04-01T11:59:41;10.40;99.90
15690;DHT22;7945;48.816;11.506;2023-04-01T12:02:16;10.30;99.90
15690;DHT22;7945;48.816;11.506;2023-04-01T12:05:11;10.20;99.90
15690;DHT22;7945;48.816;11.506;2023-04-01T12:07:53;10.20;99.90
15690;DHT22;7945;48.816;11.506;2023-04-01T12:10:26;10.20;99.90
15690;DHT22;7945;48.816;11.506;2023-04-01T12:13:00;10.20;99.90
15690;DHT22;7945;48.816;11.506;2023-04-01T12:15:36;10.20;99.90
15690;DHT22;7945;48.816;11.506;2023-04-01T12:18:15;10.20;99.90
15690;DHT22;7945;48.816;11.506;2023-04-01T12:20:49;10.20;99.90
15690;DHT22;7945;48.816;11.506;2023-04-01T12:23:35;10.20;99.90
15690;DHT22;7945;48.816;11.506;2023-04-01T12:26:16;10.20;99.90
15690;DHT22;7945;48.816;11.506;2023-04-01T12:29:04;10.20;99.90
15690;DHT22;7945;48.816;11.506;2023-04-01T12:31:42;10.20;99.90
15690;DHT22;7945;48.816;11.506;2023-04-01T12:34:39;10.20;99.90
15690;DHT22;7945;48.816;11.506;2023-04-01T12:37:13;10.20;99.90
15690;DHT22;7945;48.816;11.506;2023-04-01T12:42:57;10.20;99.90
15690;DHT22;7945;48.816;11.506;2023-04-01T12:45:30;10.20;99.90
15690;DHT22;7945;48.816;11.506;2023-04-01T12:48:24;10.20;99.90
15690;DHT22;7945;48.816;11.506;2023-04-01T12:51:08;10.20;99.90
15690;DHT22;7945;48.816;11.506;2023-04-01T12:53:46;10.20;99.90
15690;DHT22;7945;48.816;11.506;2023-04-01T12:56:23;10.30;99.90
15690;DHT22;7945;48.816;11.506;2023-04-01T12:59:19;10.30;99.90
15690;DHT22;7945;48.816;11.506;2023-04-01T13:02:01;10.30;99.90
15690;DHT22;7945;48.816;11.506;2023-04-01T13:05:01;10.40;99.90
15690;DHT22;7945;48.816;11.506;2023-04-01T13:07:45;10.40;99.90
15690;DHT22;7945;48.816;11.506;2023-04-01T13:10:27;10.50;99.90
15690;DHT22;7945;48.816;11.506;2023-04-01T13:13:07;10.50;99.90
15690;DHT22;7945;48.816;11.506;2023-04-01T13:15:41;10.50;99.90
15690;DHT22;7945;48.816;11.506;2023-04-01T13:18:20;10.50;99.90
15690;DHT22;7945;48.816;11.506;2023-04-01T13:20:56;10.50;99.90
15690;DHT22;7945;48.816;11.506;2023-04-01T13:23:34;10.50;99.90
15690;DHT22;7945;48.816;11.506;2023-04-01T13:26:10;10.50;99.90
15690;DHT22;7945;48.816;11.506;2023-04-01T13:28:42;10.50;99.90
15690;DHT22;7945;48.816;11.506;2023-04-01T13:31:31;10.50;99.90
15690;DHT22;7945;48.816;11.506;2023-04-01T13:34:09;10.50;99.90
15690;DHT22;7945;48.816;11.506;2023-04-01T13:36:53;10.50;99.90
15690;DHT22;7945;48.816;11.506;2023-04-01T13:39:30;10.50;99.90
15690;DHT22;7945;48.816;11.506;2023-04-01T13:42:21;10.50;99.90
15690;DHT22;7945;48.816;11.506;2023-04-01T13:44:54;10.50;99.90
15690;DHT22;7945;48.816;11.506;2023-04-01T13:51:07;10.40;99.90
15690;DHT22;7945;48.816;11.506;2023-04-01T13:56:42;10.50;99.90
15690;DHT22;7945;48.816;11.506;2023-04-01T14:02:37;10.50;99.90
15690;DHT22;7945;48.816;11.506;2023-04-01T14:05:35;10.60;99.90
15690;DHT22;7945;48.816;11.506;2023-04-01T14:08:17;10.60;99.90
15690;DHT22;7945;48.816;11.506;2023-04-01T14:10:55;10.60;99.90
15690;DHT22;7945;48.816;11.506;2023-04-01T14:13:31;10.70;99.90
15690;DHT22;7945;48.816;11.506;2023-04-01T14:16:23;10.70;99.90
15690;DHT22;7945;48.816;11.506;2023-04-01T14:19:11;10.70;99.90
15690;DHT22;7945;48.816;11.506;2023-04-01T14:21:49;10.80;99.90
15690;DHT22;7945;48.816;11.506;2023-04-01T14:24:45;10.80;99.90
15690;DHT22;7945;48.816;11.506;2023-04-01T14:27:42;10.80;99.90
15690;DHT22;7945;48.816;11.506;2023-04-01T14:30:29;10.80;99.90
15690;DHT22;7945;48.816;11.506;2023-04-01T14:33:03;10.80;99.90
15690;DHT22;7945;48.816;11.506;2023-04-01T14:35:38;10.80;99.90
15690;DHT22;7945;48.816;11.506;2023-04-01T14:38:27;10.80;99.90
15690;DHT22;7945;48.816;11.506;2023-04-01T14:40:58;10.90;99.90
15690;DHT22;7945;48.816;11.506;2023-04-01T14:44:04;10.90;99.90
15690;DHT22;7945;48.816;11.506;2023-04-01T14:47:02;11.00;99.90
15690;DHT22;7945;48.816;11.506;2023-04-01T14:49:33;11.00;99.90
15690;DHT22;7945;48.816;11.506;2023-04-01T14:52:09;11.00;99.90
15690;DHT22;7945;48.816;11.506;2023-04-01T14:54:37;11.00;99.90
15690;DHT22;7945;48.816;11.506;2023-04-01T14:57:11;11.00;99.90
15690;DHT22;7945;48.816;11.506;2023-04-01T14:59:45;11.00;99.90
15690;DHT22;7945;48.816;11.506;2023-04-01T15:02:26;11.00;99.90
15690;DHT22;7945;48.816;11.506;2023-04-01T15:05:10;11.00;99.90
15690;DHT22;7945;48.816;11.506;2023-04-01T15:08:00;11.00;99.90
15690;DHT22;7945;48.816;11.506;2023-04-01T15:14:18;11.00;99.90
15690;DHT22;7945;48.816;11.506;2023-04-01T15:16:58;11.00;99.90
15690;DHT22;7945;48.816;11.506;2023-04-01T15:19:38;10.90;99.90
15690;DHT22;7945;48.816;11.506;2023-04-01T15:22:33;10.90;99.90
15690;DHT22;7945;48.816;11.506;2023-04-01T15:25:17;10.90;99.90
15690;DHT22;7945;48.816;11.506;2023-04-01T15:27:51;10.90;99.90
15690;DHT22;7945;48.816;11.506;2023-04-01T15:30:30;10.80;99.90
15690;DHT22;7945;48.816;11.506;2023-04-01T15:33:22;10.80;99.90
15690;DHT22;7945;48.816;11.506;2023-04-01T15:36:02;10.80;99.90
15690;DHT22;7945;48.816;11.506;2023-04-01T15:38:36;10.70;99.90
15690;DHT22;7945;48.816;11.506;2023-04-01T15:41:13;11.30;99.90
15690;DHT22;7945;48.816;11.506;2023-04-01T15:43:41;10.70;99.90
15690;DHT22;7945;48.816;11.506;2023-04-01T15:46:17;10.70;99.90
15690;DHT22;7945;48.816;11.506;2023-04-01T15:51:52;10.80;99.90
15690;DHT22;7945;48.816;11.506;2023-04-01T15:54:39;10.70;99.90
15690;DHT22;7945;48.816;11.506;2023-04-01T15:57:23;10.70;99.90
15690;DHT22;7945;48.816;11.506;2023-04-01T16:03:16;10.80;99.90
15690;DHT22;7945;48.816;11.506;2023-04-01T16:06:01;10.70;99.90
15690;DHT22;7945;48.816;11.506;2023-04-01T16:08:59;10.70;99.90
15690;DHT22;7945;48.816;11.506;2023-04-01T16:11:36;10.70;99.90
15690;DHT22;7945;48.816;11.506;2023-04-01T16:14:16;10.70;99.90
15690;DHT22;7945;48.816;11.506;2023-04-01T16:16:54;10.70;99.90
15690;DHT22;7945;48.816;11.506;2023-04-01T16:19:41;10.70;99.90
15690;DHT22;7945;48.816;11.506;2023-04-01T16:22:17;10.70;99.90
15690;DHT22;7945;48.816;11.506;2023-04-01T16:24:49;10.70;99.90
15690;DHT22;7945;48.816;11.506;2023-04-01T16:27:23;10.70;99.90
15690;DHT22;7945;48.816;11.506;2023-04-01T16:29:55;10.60;99.90
15690;DHT22;7945;48.816;11.506;2023-04-01T16:32:39;10.60;99.90
15690;DHT22;7945;48.816;11.506;2023-04-01T16:35:23;10.60;99.90
15690;DHT22;7945;48.816;11.506;2023-04-01T16:37:58;10.60;99.90
15690;DHT22;7945;48.816;11.506;2023-04-01T16:40:37;10.60;99.90
15690;DHT22;7945;48.816;11.506;2023-04-01T16:43:13;10.60;99.90
15690;DHT22;7945;48.816;11.506;2023-04-01T16:45:45;10.60;99.90
15690;DHT22;7945;48.816;11.506;2023-04-01T16:48:17;10.60;99.90
15690;DHT22;7945;48.816;11.506;2023-04-01T16:50:53;10.60;99.90
15690;DHT22;7945;48.816;11.506;2023-04-01T16:53:34;10.60;99.90
15690;DHT22;7945;48.816;11.506;2023-04-01T16:56:11;10.60;99.90
15690;DHT22;7945;48.816;11.506;2023-04-01T16:58:43;10.60;99.90
15690;DHT22;7945;48.816;11.506;2023-04-01T17:01:19;10.60;99.90
15690;DHT22;7945;48.816;11.506;2023-04-01T17:03:51;10.60;99.90
15690;DHT22;7945;48.816;11.506;2023-04-01T17:06:28;10.60;99.90
15690;DHT22;7945;48.816;11.506;2023-04-01T17:09:17;10.50;99.90
15690;DHT22;7945;48.816;11.506;2023-04-01T17:11:49;10.50;99.90
15690;DHT22;7945;48.816;11.506;2023-04-01T17:14:25;10.50;99.90
15690;DHT22;7945;48.816;11.506;2023-04-01T17:17:04;10.40;99.90
15690;DHT22;7945;48.816;11.506;2023-04-01T17:19:55;10.40;99.90
15690;DHT22;7945;48.816;11.506;2023-04-01T17:22:31;10.40;99.90
15690;DHT22;7945;48.816;11.506;2023-04-01T17:25:20;10.40;99.90
15690;DHT22;7945;48.816;11.506;2023-04-01T17:27:56;10.40;99.90
15690;DHT22;7945;48.816;11.506;2023-04-01T17:30:29;10.40;99.90
15690;DHT22;7945;48.816;11.506;2023-04-01T17:33:24;10.30;99.90
15690;DHT22;7945;48.816;11.506;2023-04-01T17:35:58;10.30;99.90
15690;DHT22;7945;48.816;11.506;2023-04-01T17:38:46;10.30;99.90
15690;DHT22;7945;48.816;11.506;2023-04-01T17:41:28;10.30;99.90
15690;DHT22;7945;48.816;11.506;2023-04-01T17:44:03;10.30;99.90